sensor_id;sensor_type;location;lat;lon;timestamp;pressure;altitude;pressure_sealevel;temperature;humidity
48267;BME280;34088;52.232;5.196;2024-01-25T00:00:20;102794.06;;;8.32;86.30
48267;BME280;34088;52.232;5.196;2024-01-25T00:02:46;102800.06;;;8.28;85.92
48267;BME280;34088;52.232;5.196;2024-01-25T00:05:11;102795.72;;;8.28;86.78
48267;BME280;34088;52.232;5.196;2024-01-25T00:07:48;102799.13;;;8.21;86.60
48267;BME280;34088;52.232;5.196;2024-01-25T00:10:14;102791.38;;;8.20;86.29
48267;BME280;34088;52.232;5.196;2024-01-25T00:12:40;102791.31;;;8.15;86.80
48267;BME280;34088;52.232;5.196;2024-01-25T00:15:05;102793.06;;;8.18;86.97
48267;BME280;34088;52.232;5.196;2024-01-25T00:17:30;102802.53;;;8.19;86.29
48267;BME280;34088;52.232;5.196;2024-01-25T00:32:34;102796.31;;;7.91;87.89
48267;BME280;34088;52.232;5.196;2024-01-25T00:34:59;102794.63;;;7.92;87.50
48267;BME280;34088;52.232;5.196;2024-01-25T00:37:25;102797.16;;;7.86;88.17
48267;BME280;34088;52.232;5.196;2024-01-25T00:39:50;102790.25;;;7.85;87.73
48267;BME280;34088;52.232;5.196;2024-01-25T00:42:17;102797.97;;;7.82;87.97
48267;BME280;34088;52.232;5.196;2024-01-25T00:44:46;102794.53;;;7.80;88.10
48267;BME280;34088;52.232;5.196;2024-01-25T00:47:12;102799.66;;;7.81;87.88
48267;BME280;34088;52.232;5.196;2024-01-25T00:49:38;102812.63;;;7.86;87.58
48267;BME280;34088;52.232;5.196;2024-01-25T00:52:03;102822.03;;;7.82;88.11
48267;BME280;34088;52.232;5.196;2024-01-25T00:54:30;102826.28;;;7.79;88.17
48267;BME280;34088;52.232;5.196;2024-01-25T00:56:55;102828.88;;;7.80;87.54
48267;BME280;34088;52.232;5.196;2024-01-25T00:59:21;102821.97;;;7.75;88.11
48267;BME280;34088;52.232;5.196;2024-01-25T01:01:47;102824.59;;;7.79;88.08
48267;BME280;34088;52.232;5.196;2024-01-25T01:04:16;102833.19;;;7.80;88.46
48267;BME280;34088;52.232;5.196;2024-01-25T01:06:41;102828.03;;;7.81;88.14
48267;BME280;34088;52.232;5.196;2024-01-25T01:09:07;102842.63;;;7.78;88.20
48267;BME280;34088;52.232;5.196;2024-01-25T01:11:32;102840.97;;;7.84;87.90
48267;BME280;34088;52.232;5.196;2024-01-25T01:13:58;102840.94;;;7.81;88.11
48267;BME280;34088;52.232;5.196;2024-01-25T01:16:23;102840.94;;;7.80;88.67
48267;BME280;34088;52.232;5.196;2024-01-25T01:18:48;102844.34;;;7.77;88.72
48267;BME280;34088;52.232;5.196;2024-01-25T01:21:14;102840.94;;;7.81;88.87
48267;BME280;34088;52.232;5.196;2024-01-25T01:23:39;102835.72;;;7.72;88.69
48267;BME280;34088;52.232;5.196;2024-01-25T01:26:05;102837.38;;;7.67;88.87
48267;BME280;34088;52.232;5.196;2024-01-25T01:28:30;102851.19;;;7.74;88.82
48267;BME280;34088;52.232;5.196;2024-01-25T01:30:56;102845.13;;;7.70;89.17
48267;BME280;34088;52.232;5.196;2024-01-25T01:33:21;102845.09;;;7.67;88.73
48267;BME280;34088;52.232;5.196;2024-01-25T01:35:46;102845.97;;;7.66;89.32
48267;BME280;34088;52.232;5.196;2024-01-25T01:38:12;102837.31;;;7.61;89.38
48267;BME280;34088;52.232;5.196;2024-01-25T01:40:37;102834.75;;;7.64;88.95
48267;BME280;34088;52.232;5.196;2024-01-25T01:43:03;102835.59;;;7.62;89.15
48267;BME280;34088;52.232;5.196;2024-01-25T01:45:28;102841.63;;;7.64;89.03
48267;BME280;34088;52.232;5.196;2024-01-25T01:47:55;102839.84;;;7.58;89.10
48267;BME280;34088;52.232;5.196;2024-01-25T01:50:21;102840.72;;;7.57;89.66
48267;BME280;34088;52.232;5.196;2024-01-25T01:52:47;102854.47;;;7.58;89.69
48267;BME280;34088;52.232;5.196;2024-01-25T01:55:13;102836.38;;;7.52;89.01
48267;BME280;34088;52.232;5.196;2024-01-25T01:57:39;102843.25;;;7.53;89.59
48267;BME280;34088;52.232;5.196;2024-01-25T02:00:06;102845.78;;;7.50;89.93
48267;BME280;34088;52.232;5.196;2024-01-25T02:02:33;102846.66;;;7.50;90.14
48267;BME280;34088;52.232;5.196;2024-01-25T02:04:59;102861.22;;;7.47;90.45
48267;BME280;34088;52.232;5.196;2024-01-25T02:07:24;102863.81;;;7.48;89.88
48267;BME280;34088;52.232;5.196;2024-01-25T02:09:49;102857.78;;;7.45;90.83
48267;BME280;34088;52.232;5.196;2024-01-25T02:12:15;102853.38;;;7.38;91.38
48267;BME280;34088;52.232;5.196;2024-01-25T02:14:44;102871.41;;;7.35;90.53
48267;BME280;34088;52.232;5.196;2024-01-25T02:17:09;102860.19;;;7.33;90.88
48267;BME280;34088;52.232;5.196;2024-01-25T02:19:35;102878.16;;;7.27;91.39
48267;BME280;34088;52.232;5.196;2024-01-25T02:22:01;102875.66;;;7.33;90.96
48267;BME280;34088;52.232;5.196;2024-01-25T02:24:27;102886.00;;;7.36;91.61
48267;BME280;34088;52.232;5.196;2024-01-25T02:26:52;102886.00;;;7.36;90.45
48267;BME280;34088;52.232;5.196;2024-01-25T02:29:17;102883.41;;;7.31;90.55
48267;BME280;34088;52.232;5.196;2024-01-25T02:31:43;102891.13;;;7.33;91.15
48267;BME280;34088;52.232;5.196;2024-01-25T02:34:08;102895.38;;;7.29;91.15
48267;BME280;34088;52.232;5.196;2024-01-25T02:36:33;102899.63;;;7.26;91.31
48267;BME280;34088;52.232;5.196;2024-01-25T02:38:58;102903.06;;;7.25;91.30
48267;BME280;34088;52.232;5.196;2024-01-25T02:41:24;102897.88;;;7.22;91.18
48267;BME280;34088;52.232;5.196;2024-01-25T02:43:49;102904.69;;;7.17;91.42
48267;BME280;34088;52.232;5.196;2024-01-25T02:46:14;102902.09;;;7.15;91.88
48267;BME280;34088;52.232;5.196;2024-01-25T02:48:39;102895.19;;;7.13;91.70
48267;BME280;34088;52.232;5.196;2024-01-25T02:51:05;102900.28;;;7.08;92.02
48267;BME280;34088;52.232;5.196;2024-01-25T02:53:30;102900.31;;;7.10;91.46
48267;BME280;34088;52.232;5.196;2024-01-25T02:55:55;102896.72;;;7.00;91.95
48267;BME280;34088;52.232;5.196;2024-01-25T02:58:21;102900.22;;;7.02;92.46
48267;BME280;34088;52.232;5.196;2024-01-25T03:00:46;102904.50;;;7.03;92.32
48267;BME280;34088;52.232;5.196;2024-01-25T03:03:11;102906.22;;;7.03;92.32
48267;BME280;34088;52.232;5.196;2024-01-25T03:05:36;102904.47;;;6.99;92.44
48267;BME280;34088;52.232;5.196;2024-01-25T03:08:02;102900.81;;;6.85;93.73
48267;BME280;34088;52.232;5.196;2024-01-25T03:10:27;102908.50;;;6.83;93.74
48267;BME280;34088;52.232;5.196;2024-01-25T03:12:53;102911.94;;;6.81;93.20
48267;BME280;34088;52.232;5.196;2024-01-25T03:15:18;102917.06;;;6.79;93.41
48267;BME280;34088;52.232;5.196;2024-01-25T03:17:43;102905.84;;;6.77;92.85
48267;BME280;34088;52.232;5.196;2024-01-25T03:20:09;102910.94;;;6.70;93.81
48267;BME280;34088;52.232;5.196;2024-01-25T03:22:34;102903.91;;;6.60;94.08
48267;BME280;34088;52.232;5.196;2024-01-25T03:25:00;102918.50;;;6.61;94.06
48267;BME280;34088;52.232;5.196;2024-01-25T03:27:25;102920.16;;;6.57;93.49
48267;BME280;34088;52.232;5.196;2024-01-25T03:29:50;102919.25;;;6.54;93.77
48267;BME280;34088;52.232;5.196;2024-01-25T03:32:16;102913.22;;;6.53;93.74
48267;BME280;34088;52.232;5.196;2024-01-25T03:34:41;102913.19;;;6.50;94.03
48267;BME280;34088;52.232;5.196;2024-01-25T03:37:07;102915.75;;;6.49;94.26
48267;BME280;34088;52.232;5.196;2024-01-25T03:39:32;102907.09;;;6.44;94.83
48267;BME280;34088;52.232;5.196;2024-01-25T03:41:57;102902.00;;;6.47;94.29
48267;BME280;34088;52.232;5.196;2024-01-25T03:44:23;102905.44;;;6.46;94.45
48267;BME280;34088;52.232;5.196;2024-01-25T03:46:48;102901.78;;;6.33;95.56
48267;BME280;34088;52.232;5.196;2024-01-25T03:49:14;102897.56;;;6.37;95.42
48267;BME280;34088;52.232;5.196;2024-01-25T03:51:39;102900.91;;;6.31;95.77
48267;BME280;34088;52.232;5.196;2024-01-25T03:54:04;102916.97;;;6.17;96.99
48267;BME280;34088;52.232;5.196;2024-01-25T03:56:30;102919.44;;;6.11;96.44
48267;BME280;34088;52.232;5.196;2024-01-25T03:58:55;102914.19;;;6.06;96.83
48267;BME280;34088;52.232;5.196;2024-01-25T04:01:20;102915.84;;;6.03;96.82
48267;BME280;34088;52.232;5.196;2024-01-25T04:03:46;102913.28;;;6.03;95.86
48267;BME280;34088;52.232;5.196;2024-01-25T04:06:11;102909.00;;;6.03;95.49
48267;BME280;34088;52.232;5.196;2024-01-25T04:08:36;102903.75;;;5.96;96.48
48267;BME280;34088;52.232;5.196;2024-01-25T04:11:02;102897.66;;;5.91;96.53
48267;BME280;34088;52.232;5.196;2024-01-25T04:13:27;102904.44;;;5.87;96.31
48267;BME280;34088;52.232;5.196;2024-01-25T04:15:53;102905.25;;;5.85;96.73
48267;BME280;34088;52.232;5.196;2024-01-25T04:18:18;102900.81;;;5.78;97.43
48267;BME280;34088;52.232;5.196;2024-01-25T04:20:44;102905.88;;;5.75;98.58
48267;BME280;34088;52.232;5.196;2024-01-25T04:23:09;102907.59;;;5.74;98.03
48267;BME280;34088;52.232;5.196;2024-01-25T04:25:34;102905.03;;;5.74;98.61
48267;BME280;34088;52.232;5.196;2024-01-25T04:28:00;102904.13;;;5.71;98.01
48267;BME280;34088;52.232;5.196;2024-01-25T04:30:25;102907.53;;;5.71;98.40
48267;BME280;34088;52.232;5.196;2024-01-25T04:32:50;102919.66;;;5.78;97.31
48267;BME280;34088;52.232;5.196;2024-01-25T04:35:16;102916.91;;;5.68;97.27
48267;BME280;34088;52.232;5.196;2024-01-25T04:37:41;102919.44;;;5.65;98.29
48267;BME280;34088;52.232;5.196;2024-01-25T04:40:07;102916.00;;;5.66;97.66
48267;BME280;34088;52.232;5.196;2024-01-25T04:42:33;102902.94;;;5.54;98.23
48267;BME280;34088;52.232;5.196;2024-01-25T04:44:58;102918.31;;;5.52;98.09
48267;BME280;34088;52.232;5.196;2024-01-25T04:47:23;102921.72;;;5.51;97.82
48267;BME280;34088;52.232;5.196;2024-01-25T04:49:49;102924.09;;;5.42;98.71
48267;BME280;34088;52.232;5.196;2024-01-25T04:52:14;102924.09;;;5.42;98.46
48267;BME280;34088;52.232;5.196;2024-01-25T04:54:39;102931.00;;;5.45;98.22
48267;BME280;34088;52.232;5.196;2024-01-25T04:57:04;102918.03;;;5.39;98.45
48267;BME280;34088;52.232;5.196;2024-01-25T04:59:35;102912.94;;;5.40;97.63
48267;BME280;34088;52.232;5.196;2024-01-25T05:02:00;102916.34;;;5.39;98.74
48267;BME280;34088;52.232;5.196;2024-01-25T05:04:28;102913.78;;;5.39;98.73
48267;BME280;34088;52.232;5.196;2024-01-25T05:06:54;102920.69;;;5.42;98.60
48267;BME280;34088;52.232;5.196;2024-01-25T05:09:19;102925.88;;;5.45;98.67
48267;BME280;34088;52.232;5.196;2024-01-25T05:11:44;102927.47;;;5.40;99.34
48267;BME280;34088;52.232;5.196;2024-01-25T05:14:10;102920.56;;;5.36;99.01
48267;BME280;34088;52.232;5.196;2024-01-25T05:16:35;102918.81;;;5.35;99.16
48267;BME280;34088;52.232;5.196;2024-01-25T05:19:01;102924.91;;;5.38;99.12
48267;BME280;34088;52.232;5.196;2024-01-25T05:21:26;102925.94;;;5.48;97.52
48267;BME280;34088;52.232;5.196;2024-01-25T05:23:52;102913.00;;;5.43;98.04
48267;BME280;34088;52.232;5.196;2024-01-25T05:26:17;102930.16;;;5.46;99.78
48267;BME280;34088;52.232;5.196;2024-01-25T05:28:42;102925.00;;;5.43;98.77
48267;BME280;34088;52.232;5.196;2024-01-25T05:31:08;102920.56;;;5.36;98.11
48267;BME280;34088;52.232;5.196;2024-01-25T05:33:38;102940.19;;;5.32;99.28
48267;BME280;34088;52.232;5.196;2024-01-25T05:36:04;102941.00;;;5.30;100.00
48267;BME280;34088;52.232;5.196;2024-01-25T05:38:30;102946.13;;;5.30;99.67
48267;BME280;34088;52.232;5.196;2024-01-25T05:40:55;102946.13;;;5.30;100.00
48267;BME280;34088;52.232;5.196;2024-01-25T05:43:20;102947.75;;;5.26;99.38
48267;BME280;34088;52.232;5.196;2024-01-25T05:45:45;102935.66;;;5.21;99.97
48267;BME280;34088;52.232;5.196;2024-01-25T05:48:12;102934.81;;;5.22;100.00
48267;BME280;34088;52.232;5.196;2024-01-25T05:50:37;102947.41;;;5.10;100.00
48267;BME280;34088;52.232;5.196;2024-01-25T05:53:02;102959.44;;;5.12;100.00
48267;BME280;34088;52.232;5.196;2024-01-25T05:55:27;102956.88;;;5.12;100.00
48267;BME280;34088;52.232;5.196;2024-01-25T05:57:53;102950.09;;;5.16;99.80
48267;BME280;34088;52.232;5.196;2024-01-25T06:00:18;102947.63;;;5.20;99.77
48267;BME280;34088;52.232;5.196;2024-01-25T06:02:44;102943.22;;;5.15;100.00
48267;BME280;34088;52.232;5.196;2024-01-25T06:05:09;102937.88;;;5.06;100.00
48267;BME280;34088;52.232;5.196;2024-01-25T06:07:35;102948.16;;;5.06;100.00
48267;BME280;34088;52.232;5.196;2024-01-25T06:10:00;102944.91;;;5.14;100.00
48267;BME280;34088;52.232;5.196;2024-01-25T06:12:25;102956.06;;;5.15;100.00
48267;BME280;34088;52.232;5.196;2024-01-25T06:14:51;102956.88;;;5.12;100.00
48267;BME280;34088;52.232;5.196;2024-01-25T06:17:17;102957.75;;;5.14;100.00
48267;BME280;34088;52.232;5.196;2024-01-25T06:19:43;102949.16;;;5.12;100.00
48267;BME280;34088;52.232;5.196;2024-01-25T06:22:08;102935.28;;;5.03;100.00
48267;BME280;34088;52.232;5.196;2024-01-25T06:24:33;102953.28;;;5.06;100.00
48267;BME280;34088;52.232;5.196;2024-01-25T06:26:59;102954.25;;;5.11;100.00
48267;BME280;34088;52.232;5.196;2024-01-25T06:29:24;102964.53;;;5.11;100.00
48267;BME280;34088;52.232;5.196;2024-01-25T06:31:49;102965.19;;;5.01;100.00
48267;BME280;34088;52.232;5.196;2024-01-25T06:34:15;102964.41;;;5.05;100.00
48267;BME280;34088;52.232;5.196;2024-01-25T06:36:40;102964.41;;;5.05;100.00
48267;BME280;34088;52.232;5.196;2024-01-25T06:39:05;102949.00;;;5.05;100.00
48267;BME280;34088;52.232;5.196;2024-01-25T06:41:31;102959.25;;;5.05;100.00
48267;BME280;34088;52.232;5.196;2024-01-25T06:43:57;102972.91;;;5.02;100.00
48267;BME280;34088;52.232;5.196;2024-01-25T06:46:22;102969.53;;;5.05;100.00
48267;BME280;34088;52.232;5.196;2024-01-25T06:48:49;102963.69;;;5.10;100.00
48267;BME280;34088;52.232;5.196;2024-01-25T06:51:15;102974.78;;;5.11;100.00
48267;BME280;34088;52.232;5.196;2024-01-25T06:53:40;102963.63;;;5.09;100.00
48267;BME280;34088;52.232;5.196;2024-01-25T06:56:05;102963.50;;;5.03;100.00
48267;BME280;34088;52.232;5.196;2024-01-25T06:58:31;102963.50;;;5.03;100.00
48267;BME280;34088;52.232;5.196;2024-01-25T07:00:57;102962.75;;;5.08;100.00
48267;BME280;34088;52.232;5.196;2024-01-25T07:03:22;102954.09;;;5.02;100.00
48267;BME280;34088;52.232;5.196;2024-01-25T07:05:47;102966.00;;;5.00;100.00
48267;BME280;34088;52.232;5.196;2024-01-25T07:08:12;102972.03;;;5.02;100.00
48267;BME280;34088;52.232;5.196;2024-01-25T07:10:39;102973.69;;;4.98;100.00
48267;BME280;34088;52.232;5.196;2024-01-25T07:13:04;102963.34;;;4.95;100.00
48267;BME280;34088;52.232;5.196;2024-01-25T07:15:30;102967.66;;;4.98;100.00
48267;BME280;34088;52.232;5.196;2024-01-25T07:17:55;102967.75;;;5.01;100.00
48267;BME280;34088;52.232;5.196;2024-01-25T07:20:21;102978.06;;;5.04;100.00
48267;BME280;34088;52.232;5.196;2024-01-25T07:22:46;102978.81;;;4.98;100.00
48267;BME280;34088;52.232;5.196;2024-01-25T07:25:11;102972.66;;;4.92;100.00
48267;BME280;34088;52.232;5.196;2024-01-25T07:27:37;102977.94;;;4.98;100.00
48267;BME280;34088;52.232;5.196;2024-01-25T07:30:02;102977.91;;;4.96;100.00
48267;BME280;34088;52.232;5.196;2024-01-25T07:32:27;102964.25;;;4.99;100.00
48267;BME280;34088;52.232;5.196;2024-01-25T07:34:53;102973.72;;;5.01;100.00
48267;BME280;34088;52.232;5.196;2024-01-25T07:37:19;102975.53;;;5.05;100.00
48267;BME280;34088;52.232;5.196;2024-01-25T07:39:45;102968.56;;;5.00;100.00
48267;BME280;34088;52.232;5.196;2024-01-25T07:42:11;102976.50;;;5.10;100.00
48267;BME280;34088;52.232;5.196;2024-01-25T07:44:37;102964.59;;;5.14;100.00
48267;BME280;34088;52.232;5.196;2024-01-25T07:47:03;102950.63;;;5.01;100.00
48267;BME280;34088;52.232;5.196;2024-01-25T07:49:29;102972.31;;;5.14;100.00
48267;BME280;34088;52.232;5.196;2024-01-25T07:51:54;102976.47;;;5.09;100.00
48267;BME280;34088;52.232;5.196;2024-01-25T07:54:21;102977.41;;;5.12;100.00
48267;BME280;34088;52.232;5.196;2024-01-25T07:56:46;102972.34;;;5.17;100.00
48267;BME280;34088;52.232;5.196;2024-01-25T07:59:12;102968.09;;;5.17;100.00
48267;BME280;34088;52.232;5.196;2024-01-25T08:01:37;102962.16;;;5.20;100.00
48267;BME280;34088;52.232;5.196;2024-01-25T08:04:02;102963.00;;;5.19;100.00
48267;BME280;34088;52.232;5.196;2024-01-25T08:06:28;102967.41;;;5.24;100.00
48267;BME280;34088;52.232;5.196;2024-01-25T08:08:53;102966.47;;;5.21;100.00
48267;BME280;34088;52.232;5.196;2024-01-25T08:11:19;102917.00;;;4.89;100.00
48267;BME280;34088;52.232;5.196;2024-01-25T08:13:45;102969.91;;;5.21;100.00
48267;BME280;34088;52.232;5.196;2024-01-25T08:16:11;102966.47;;;5.21;100.00
48267;BME280;34088;52.232;5.196;2024-01-25T08:18:36;102971.72;;;5.27;100.00
48267;BME280;34088;52.232;5.196;2024-01-25T08:21:02;102982.97;;;5.32;100.00
48267;BME280;34088;52.232;5.196;2024-01-25T08:23:27;102978.66;;;5.31;100.00
48267;BME280;34088;52.232;5.196;2024-01-25T08:25:52;102976.88;;;5.27;100.00
48267;BME280;34088;52.232;5.196;2024-01-25T08:28:18;102969.25;;;5.30;100.00
48267;BME280;34088;52.232;5.196;2024-01-25T08:30:45;102970.09;;;5.30;100.00
48267;BME280;34088;52.232;5.196;2024-01-25T08:33:10;102972.78;;;5.36;100.00
48267;BME280;34088;52.232;5.196;2024-01-25T08:35:36;102973.47;;;5.28;100.00
48267;BME280;34088;52.232;5.196;2024-01-25T08:38:01;102988.16;;;5.35;100.00
48267;BME280;34088;52.232;5.196;2024-01-25T08:40:26;103001.06;;;5.38;100.00
48267;BME280;34088;52.232;5.196;2024-01-25T08:42:51;103004.66;;;5.46;100.00
48267;BME280;34088;52.232;5.196;2024-01-25T08:45:17;103001.28;;;5.47;100.00
48267;BME280;34088;52.232;5.196;2024-01-25T08:47:44;102998.00;;;5.54;100.00
48267;BME280;34088;52.232;5.196;2024-01-25T08:50:10;102997.28;;;5.61;100.00
48267;BME280;34088;52.232;5.196;2024-01-25T08:52:37;102988.00;;;5.67;100.00
48267;BME280;34088;52.232;5.196;2024-01-25T08:55:03;102978.56;;;5.68;100.00
48267;BME280;34088;52.232;5.196;2024-01-25T08:57:30;102978.56;;;5.68;100.00
48267;BME280;34088;52.232;5.196;2024-01-25T08:59:55;102977.91;;;5.78;100.00
48267;BME280;34088;52.232;5.196;2024-01-25T09:02:20;102976.38;;;5.86;100.00
48267;BME280;34088;52.232;5.196;2024-01-25T09:04:51;102988.31;;;5.82;100.00
48267;BME280;34088;52.232;5.196;2024-01-25T09:07:16;102986.53;;;5.80;100.00
48267;BME280;34088;52.232;5.196;2024-01-25T09:09:42;102986.59;;;5.83;100.00
48267;BME280;34088;52.232;5.196;2024-01-25T09:12:07;102996.88;;;5.83;100.00
48267;BME280;34088;52.232;5.196;2024-01-25T09:14:36;102997.84;;;5.89;100.00
48267;BME280;34088;52.232;5.196;2024-01-25T09:17:01;103009.06;;;5.91;100.00
48267;BME280;34088;52.232;5.196;2024-01-25T09:19:27;103003.91;;;5.91;100.00
48267;BME280;34088;52.232;5.196;2024-01-25T09:21:52;103001.34;;;5.91;100.00
48267;BME280;34088;52.232;5.196;2024-01-25T09:24:17;102990.25;;;5.94;100.00
48267;BME280;34088;52.232;5.196;2024-01-25T09:26:42;102993.81;;;6.02;100.00
48267;BME280;34088;52.232;5.196;2024-01-25T09:29:08;102983.69;;;6.09;100.00
48267;BME280;34088;52.232;5.196;2024-01-25T09:31:33;102983.03;;;6.22;100.00
48267;BME280;34088;52.232;5.196;2024-01-25T09:33:59;102975.44;;;6.28;100.00
48267;BME280;34088;52.232;5.196;2024-01-25T09:36:24;102976.34;;;6.32;100.00
48267;BME280;34088;52.232;5.196;2024-01-25T09:38:49;102977.22;;;6.34;100.00
48267;BME280;34088;52.232;5.196;2024-01-25T09:41:14;102986.78;;;6.39;100.00
48267;BME280;34088;52.232;5.196;2024-01-25T09:43:40;102987.84;;;6.52;100.00
48267;BME280;34088;52.232;5.196;2024-01-25T09:46:07;102991.31;;;6.54;100.00
48267;BME280;34088;52.232;5.196;2024-01-25T09:48:32;102994.88;;;6.63;100.00
48267;BME280;34088;52.232;5.196;2024-01-25T09:50:58;102971.56;;;6.54;100.00
48267;BME280;34088;52.232;5.196;2024-01-25T09:53:24;102975.97;;;6.60;100.00
48267;BME280;34088;52.232;5.196;2024-01-25T09:56:13;102972.75;;;6.74;100.00
48267;BME280;34088;52.232;5.196;2024-01-25T10:01:08;102972.81;;;6.79;100.00
48267;BME280;34088;52.232;5.196;2024-01-25T10:03:34;102960.94;;;6.88;100.00
48267;BME280;34088;52.232;5.196;2024-01-25T10:06:00;102952.25;;;6.80;100.00
48267;BME280;34088;52.232;5.196;2024-01-25T10:08:25;102961.84;;;6.92;100.00
48267;BME280;34088;52.232;5.196;2024-01-25T10:10:50;102977.47;;;7.02;100.00
48267;BME280;34088;52.232;5.196;2024-01-25T10:13:18;102974.84;;;7.01;100.00
48267;BME280;34088;52.232;5.196;2024-01-25T10:15:44;102977.47;;;7.02;100.00
48267;BME280;34088;52.232;5.196;2024-01-25T10:18:11;102969.84;;;7.10;100.00
48267;BME280;34088;52.232;5.196;2024-01-25T10:20:47;102973.31;;;7.13;100.00
48267;BME280;34088;52.232;5.196;2024-01-25T10:23:12;102960.53;;;7.19;100.00
48267;BME280;34088;52.232;5.196;2024-01-25T10:25:38;102955.44;;;7.27;99.71
48267;BME280;34088;52.232;5.196;2024-01-25T10:28:07;102959.72;;;7.22;99.98
48267;BME280;34088;52.232;5.196;2024-01-25T10:30:33;102958.97;;;7.30;100.00
48267;BME280;34088;52.232;5.196;2024-01-25T10:33:00;102961.66;;;7.44;99.69
48267;BME280;34088;52.232;5.196;2024-01-25T10:35:26;102968.69;;;7.54;98.93
48267;BME280;34088;52.232;5.196;2024-01-25T10:37:52;102961.72;;;7.47;98.75
48267;BME280;34088;52.232;5.196;2024-01-25T10:40:21;102966.91;;;7.50;98.65
48267;BME280;34088;52.232;5.196;2024-01-25T10:42:47;102961.00;;;7.58;98.16
48267;BME280;34088;52.232;5.196;2024-01-25T10:45:13;102967.91;;;7.62;98.22
48267;BME280;34088;52.232;5.196;2024-01-25T10:47:38;102955.00;;;7.58;99.19
48267;BME280;34088;52.232;5.196;2024-01-25T10:50:07;102960.28;;;7.70;98.68
48267;BME280;34088;52.232;5.196;2024-01-25T10:52:34;102967.28;;;7.80;97.87
48267;BME280;34088;52.232;5.196;2024-01-25T10:55:01;102968.19;;;7.88;98.18
48267;BME280;34088;52.232;5.196;2024-01-25T10:57:35;102956.22;;;7.93;97.67
48267;BME280;34088;52.232;5.196;2024-01-25T11:00:01;102948.31;;;7.78;97.48
48267;BME280;34088;52.232;5.196;2024-01-25T11:02:28;102949.19;;;7.78;97.57
48267;BME280;34088;52.232;5.196;2024-01-25T11:04:54;102938.94;;;7.84;96.65
48267;BME280;34088;52.232;5.196;2024-01-25T11:07:20;102932.06;;;7.85;97.50
48267;BME280;34088;52.232;5.196;2024-01-25T11:09:46;102919.19;;;7.83;97.31
48267;BME280;34088;52.232;5.196;2024-01-25T11:12:18;102907.13;;;7.84;97.75
48267;BME280;34088;52.232;5.196;2024-01-25T11:14:43;102904.59;;;7.90;97.77
48267;BME280;34088;52.232;5.196;2024-01-25T11:17:18;102913.19;;;7.86;97.98
48267;BME280;34088;52.232;5.196;2024-01-25T11:19:44;102922.56;;;7.82;97.54
48267;BME280;34088;52.232;5.196;2024-01-25T11:22:10;102925.28;;;7.93;96.14
48267;BME280;34088;52.232;5.196;2024-01-25T11:24:38;102933.94;;;8.01;96.89
48267;BME280;34088;52.232;5.196;2024-01-25T11:27:04;102912.50;;;8.05;96.38
48267;BME280;34088;52.232;5.196;2024-01-25T11:29:30;102894.41;;;8.02;96.66
48267;BME280;34088;52.232;5.196;2024-01-25T11:31:56;102885.78;;;8.00;96.76
48267;BME280;34088;52.232;5.196;2024-01-25T11:34:22;102887.53;;;8.05;97.09
48267;BME280;34088;52.232;5.196;2024-01-25T11:36:48;102897.94;;;8.13;96.19
48267;BME280;34088;52.232;5.196;2024-01-25T11:39:15;102886.03;;;8.25;95.73
48267;BME280;34088;52.232;5.196;2024-01-25T11:41:41;102877.41;;;8.22;96.44
48267;BME280;34088;52.232;5.196;2024-01-25T11:44:09;102867.97;;;8.24;95.36
48267;BME280;34088;52.232;5.196;2024-01-25T11:46:35;102867.97;;;8.24;95.55
48267;BME280;34088;52.232;5.196;2024-01-25T11:49:00;102858.47;;;8.21;96.14
48267;BME280;34088;52.232;5.196;2024-01-25T11:51:26;102844.66;;;8.15;95.41
48267;BME280;34088;52.232;5.196;2024-01-25T11:53:51;102841.41;;;8.35;95.07
48267;BME280;34088;52.232;5.196;2024-01-25T11:56:17;102836.28;;;8.41;95.53
48267;BME280;34088;52.232;5.196;2024-01-25T11:58:45;102844.00;;;8.40;95.08
48267;BME280;34088;52.232;5.196;2024-01-25T12:01:11;102837.16;;;8.48;94.61
48267;BME280;34088;52.232;5.196;2024-01-25T12:03:37;102819.91;;;8.38;93.74
48267;BME280;34088;52.232;5.196;2024-01-25T12:06:03;102830.28;;;8.53;94.73
48267;BME280;34088;52.232;5.196;2024-01-25T12:08:31;102823.44;;;8.61;94.12
48267;BME280;34088;52.232;5.196;2024-01-25T12:11:06;102827.78;;;8.65;93.76
48267;BME280;34088;52.232;5.196;2024-01-25T12:13:35;102824.28;;;8.55;93.83
48267;BME280;34088;52.232;5.196;2024-01-25T12:16:02;102826.81;;;8.48;93.48
48267;BME280;34088;52.232;5.196;2024-01-25T12:18:29;102828.56;;;8.55;93.56
48267;BME280;34088;52.232;5.196;2024-01-25T12:20:55;102828.66;;;8.68;93.89
48267;BME280;34088;52.232;5.196;2024-01-25T12:23:22;102818.38;;;8.73;93.41
48267;BME280;34088;52.232;5.196;2024-01-25T12:25:47;102818.41;;;8.79;92.80
48267;BME280;34088;52.232;5.196;2024-01-25T12:28:13;102811.47;;;8.70;93.24
48267;BME280;34088;52.232;5.196;2024-01-25T12:30:39;102801.16;;;8.75;92.34
48267;BME280;34088;52.232;5.196;2024-01-25T12:33:04;102809.75;;;8.77;91.88
48267;BME280;34088;52.232;5.196;2024-01-25T12:35:29;102814.91;;;8.77;91.72
48267;BME280;34088;52.232;5.196;2024-01-25T12:37:54;102806.34;;;8.84;91.66
48267;BME280;34088;52.232;5.196;2024-01-25T12:40:20;102804.59;;;8.74;91.19
48267;BME280;34088;52.232;5.196;2024-01-25T12:42:45;102804.59;;;8.77;91.02
48267;BME280;34088;52.232;5.196;2024-01-25T12:45:10;102800.31;;;8.86;90.52
48267;BME280;34088;52.232;5.196;2024-01-25T12:47:35;102792.63;;;8.91;89.99
48267;BME280;34088;52.232;5.196;2024-01-25T12:50:01;102793.41;;;8.79;89.78
48267;BME280;34088;52.232;5.196;2024-01-25T12:52:26;102786.53;;;8.80;89.82
48267;BME280;34088;52.232;5.196;2024-01-25T12:54:51;102777.06;;;8.82;90.18
48267;BME280;34088;52.232;5.196;2024-01-25T12:57:16;102783.97;;;8.86;89.86
48267;BME280;34088;52.232;5.196;2024-01-25T12:59:42;102771.06;;;8.86;89.93
48267;BME280;34088;52.232;5.196;2024-01-25T13:02:07;102777.94;;;8.82;89.12
48267;BME280;34088;52.232;5.196;2024-01-25T13:04:33;102778.84;;;8.92;89.46